createdAt,value
2019-01-20T00:00:36.682Z,9.45
2019-01-20T00:02:42.177Z,8.63
2019-01-20T00:04:47.743Z,7.62
2019-01-20T00:06:53.286Z,8.33
2019-01-20T00:08:58.742Z,7.40
2019-01-20T00:11:05.075Z,8.70
2019-01-20T00:13:10.598Z,9.20
2019-01-20T00:15:19.621Z,8.68
2019-01-20T00:17:25.142Z,8.48
2019-01-20T00:19:30.813Z,8.80
2019-01-20T00:21:36.349Z,9.25
2019-01-20T00:23:44.882Z,10.23
2019-01-20T00:25:52.907Z,10.08
2019-01-20T00:27:59.201Z,9.68
2019-01-20T00:30:06.859Z,8.80
2019-01-20T00:32:12.605Z,9.60
2019-01-20T00:34:26.061Z,10.63
2019-01-20T00:36:32.737Z,9.38
2019-01-20T00:38:38.417Z,8.83
2019-01-20T00:40:47.331Z,9.85
2019-01-20T00:42:52.817Z,10.48
2019-01-20T00:49:52.581Z,10.72
2019-01-20T00:54:02.702Z,9.85
2019-01-20T00:56:09.787Z,12.07
2019-01-20T00:58:15.239Z,10.60
2019-01-20T01:00:26.210Z,10.60
2019-01-20T01:02:31.865Z,12.60
2019-01-20T01:06:58.603Z,9.70
2019-01-20T01:09:06.270Z,11.10
2019-01-20T01:11:11.932Z,10.55
2019-01-20T01:13:18.165Z,10.50
2019-01-20T01:15:25.695Z,10.63
2019-01-20T01:17:31.273Z,9.48
2019-01-20T01:19:37.077Z,10.95
2019-01-20T01:21:45.447Z,8.80
2019-01-20T01:23:51.077Z,9.98
2019-01-20T01:25:56.638Z,9.68
2019-01-20T01:28:03.662Z,9.18
2019-01-20T01:30:18.255Z,9.23
2019-01-20T01:32:23.801Z,9.93
2019-01-20T01:34:30.622Z,9.73
2019-01-20T01:36:36.090Z,10.38
2019-01-20T01:38:41.717Z,11.00
2019-01-20T01:40:47.962Z,9.55
2019-01-20T01:42:53.812Z,10.35
2019-01-20T01:44:59.282Z,9.23
2019-01-20T01:47:08.565Z,10.70
2019-01-20T01:49:13.983Z,9.08
2019-01-20T01:51:19.870Z,11.25
2019-01-20T01:53:25.438Z,9.03
2019-01-20T01:55:30.869Z,10.23
2019-01-20T01:57:36.582Z,10.53
2019-01-20T01:59:41.977Z,9.90
2019-01-20T02:01:48.162Z,10.10
2019-01-20T02:03:53.780Z,9.85
2019-01-20T02:06:00.353Z,9.30
2019-01-20T02:08:05.837Z,10.93
2019-01-20T02:10:13.996Z,11.38
2019-01-20T02:12:20.637Z,11.15
2019-01-20T02:14:26.320Z,11.28
2019-01-20T02:16:31.903Z,12.58
2019-01-20T02:18:37.718Z,10.85
2019-01-20T02:20:43.398Z,10.80
2019-01-20T02:22:49.150Z,11.20
2019-01-20T02:24:55.398Z,11.15
2019-01-20T02:27:00.909Z,12.43
2019-01-20T02:31:17.671Z,12.95
2019-01-20T02:33:23.198Z,12.03
2019-01-20T02:35:28.714Z,13.05
2019-01-20T02:37:35.646Z,12.95
2019-01-20T02:39:41.116Z,13.70
2019-01-20T02:41:46.621Z,12.53
2019-01-20T02:43:52.105Z,13.70
2019-01-20T02:45:58.341Z,13.15
2019-01-20T02:48:03.818Z,11.97
2019-01-20T02:50:11.086Z,12.82
2019-01-20T02:52:16.799Z,12.55
2019-01-20T02:54:22.270Z,13.38
2019-01-20T02:56:27.877Z,13.35
2019-01-20T02:58:39.250Z,11.65
2019-01-20T03:00:44.699Z,11.65
2019-01-20T03:02:50.657Z,13.10
2019-01-20T03:04:56.114Z,12.30
2019-01-20T03:07:01.637Z,12.40
2019-01-20T03:09:09.537Z,13.80
2019-01-20T03:11:15.878Z,13.15
2019-01-20T03:13:23.929Z,12.70
2019-01-20T03:15:29.950Z,12.43
2019-01-20T03:17:35.374Z,12.93
2019-01-20T03:19:40.951Z,13.15
2019-01-20T03:21:48.335Z,12.55
2019-01-20T03:23:53.852Z,12.53
2019-01-20T03:26:01.237Z,12.07
2019-01-20T03:28:07.341Z,12.55
2019-01-20T03:30:15.153Z,12.55
2019-01-20T03:32:20.642Z,11.18
2019-01-20T03:34:26.241Z,10.28
2019-01-20T03:36:31.833Z,10.35
2019-01-20T03:38:37.273Z,11.90
2019-01-20T03:40:42.716Z,11.57
2019-01-20T03:42:48.305Z,13.83
2019-01-20T03:44:54.197Z,12.43
2019-01-20T03:46:59.759Z,11.73
2019-01-20T03:49:05.362Z,12.53
2019-01-20T03:51:17.569Z,12.50
2019-01-20T03:53:23.311Z,11.95
2019-01-20T03:55:28.812Z,11.95
2019-01-20T03:57:34.395Z,11.50
2019-01-20T03:59:40.915Z,11.57
2019-01-20T04:01:46.801Z,12.98
2019-01-20T04:03:53.020Z,11.95
2019-01-20T04:05:58.447Z,10.80
2019-01-20T04:08:05.811Z,11.88
2019-01-20T04:10:13.007Z,12.30
2019-01-20T04:12:20.803Z,12.10
2019-01-20T04:14:25.995Z,12.43
2019-01-20T04:16:34.581Z,11.55
2019-01-20T04:18:40.158Z,11.53
2019-01-20T04:23:09.478Z,11.78
2019-01-20T04:25:16.180Z,12.05
2019-01-20T04:27:21.726Z,11.57
2019-01-20T04:29:27.141Z,13.08
2019-01-20T04:31:32.611Z,11.30
2019-01-20T04:33:38.341Z,12.05
2019-01-20T04:35:43.981Z,12.98
2019-01-20T04:37:50.088Z,12.63
2019-01-20T04:39:55.502Z,10.90
2019-01-20T04:42:00.982Z,12.60
2019-01-20T04:44:07.021Z,12.60
2019-01-20T04:46:12.850Z,11.90
2019-01-20T04:48:18.357Z,12.07
2019-01-20T04:50:25.661Z,12.15
2019-01-20T04:52:31.070Z,10.95
2019-01-20T04:54:36.574Z,11.40
2019-01-20T04:56:42.129Z,11.88
2019-01-20T04:58:47.533Z,12.15
2019-01-20T05:00:52.988Z,12.53
2019-01-20T05:02:59.796Z,10.55
2019-01-20T05:07:26.938Z,11.12
2019-01-20T05:09:34.449Z,9.48
2019-01-20T05:11:39.863Z,11.55
2019-01-20T05:13:45.566Z,10.18
2019-01-20T05:15:50.998Z,11.70
2019-01-20T05:17:56.726Z,10.58
2019-01-20T05:20:02.118Z,10.18
2019-01-20T05:22:09.251Z,10.82
2019-01-20T05:24:14.737Z,10.53
2019-01-20T05:26:20.145Z,9.23
2019-01-20T05:28:25.538Z,9.75
2019-01-20T05:30:30.978Z,11.25
2019-01-20T05:32:39.633Z,9.45
2019-01-20T05:34:45.094Z,10.72
2019-01-20T05:36:50.741Z,9.63
2019-01-20T05:38:56.229Z,8.78
2019-01-20T05:41:07.466Z,10.03
2019-01-20T05:43:13.598Z,9.90
2019-01-20T05:45:21.298Z,9.15
2019-01-20T05:47:33.531Z,7.95
2019-01-20T05:49:39.707Z,8.55
2019-01-20T05:51:45.578Z,9.80
2019-01-20T05:53:51.786Z,9.95
2019-01-20T05:55:57.217Z,8.68
2019-01-20T05:58:02.919Z,9.38
2019-01-20T06:00:11.994Z,10.45
2019-01-20T06:02:17.514Z,8.33
2019-01-20T06:04:23.011Z,9.38
2019-01-20T06:06:28.669Z,9.25
2019-01-20T06:08:34.357Z,8.93
2019-01-20T06:10:40.082Z,8.70
2019-01-20T06:12:53.912Z,8.73
2019-01-20T06:14:55.337Z,8.50
2019-01-20T06:17:00.822Z,8.23
2019-01-20T06:19:06.901Z,7.87
2019-01-20T06:21:15.615Z,9.53
2019-01-20T06:23:21.468Z,7.70
2019-01-20T06:25:29.093Z,8.80
2019-01-20T06:27:34.794Z,8.95
2019-01-20T06:29:40.206Z,8.25
2019-01-20T06:31:51.522Z,7.50
2019-01-20T06:33:57.425Z,8.83
2019-01-20T06:36:03.203Z,10.70
2019-01-20T06:38:09.419Z,9.13
2019-01-20T06:40:15.133Z,8.35
2019-01-20T06:42:20.557Z,7.37
2019-01-20T06:44:28.185Z,6.37
2019-01-20T06:46:33.601Z,7.97
2019-01-20T06:48:39.430Z,7.22
2019-01-20T06:50:47.553Z,7.55
2019-01-20T06:52:53.073Z,7.47
2019-01-20T06:54:58.481Z,6.92
2019-01-20T06:57:03.933Z,7.37
2019-01-20T06:59:09.529Z,8.35
2019-01-20T07:01:15.162Z,7.35
2019-01-20T07:03:26.666Z,7.67
2019-01-20T07:05:32.134Z,7.33
2019-01-20T07:07:37.880Z,7.05
2019-01-20T07:09:46.430Z,8.13
2019-01-20T07:11:51.926Z,7.22
2019-01-20T07:13:57.317Z,7.08
2019-01-20T07:16:02.746Z,6.67
2019-01-20T07:18:08.231Z,6.28
2019-01-20T07:20:14.037Z,7.35
2019-01-20T07:22:21.959Z,7.25
2019-01-20T07:24:28.270Z,6.72
2019-01-20T07:26:33.673Z,8.38
2019-01-20T07:28:39.354Z,7.20
2019-01-20T07:30:44.795Z,8.88
2019-01-20T07:32:50.290Z,6.50
2019-01-20T07:34:56.902Z,7.53
2019-01-20T07:37:02.501Z,8.00
2019-01-20T07:39:08.659Z,6.95
2019-01-20T07:41:20.657Z,8.58
2019-01-20T07:43:26.325Z,7.90
2019-01-20T07:45:32.024Z,7.67
2019-01-20T07:47:37.521Z,7.42
2019-01-20T07:49:44.389Z,6.97
2019-01-20T07:51:49.838Z,6.95
2019-01-20T07:53:56.639Z,7.25
2019-01-20T07:56:02.049Z,8.05
2019-01-20T07:58:07.569Z,7.78
2019-01-20T08:00:15.199Z,7.10
2019-01-20T08:02:20.817Z,8.15
2019-01-20T08:04:26.311Z,6.37
2019-01-20T08:06:31.733Z,7.58
2019-01-20T08:08:37.826Z,7.75
2019-01-20T08:10:43.261Z,6.90
2019-01-20T08:12:51.136Z,6.83
2019-01-20T08:15:15.842Z,6.40
2019-01-20T08:17:26.902Z,6.70
2019-01-20T08:19:32.291Z,7.60
2019-01-20T08:21:37.781Z,7.20
2019-01-20T08:23:44.203Z,8.50
2019-01-20T08:25:50.782Z,6.03
2019-01-20T08:27:56.293Z,7.05
2019-01-20T08:30:10.147Z,8.45
2019-01-20T08:32:16.282Z,6.83
2019-01-20T08:34:21.825Z,6.37
2019-01-20T08:36:28.953Z,7.22
2019-01-20T08:38:34.422Z,7.22
2019-01-20T08:40:39.910Z,6.70
2019-01-20T08:42:46.217Z,8.55
2019-01-20T08:44:51.882Z,5.90
2019-01-20T08:47:02.557Z,7.17
2019-01-20T08:49:09.882Z,7.10
2019-01-20T08:51:16.343Z,6.80
2019-01-20T08:53:22.125Z,7.05
2019-01-20T08:55:27.529Z,6.45
2019-01-20T08:57:33.116Z,7.30
2019-01-20T08:59:38.513Z,7.15
2019-01-20T09:01:44.053Z,7.70
2019-01-20T09:03:49.677Z,8.25
2019-01-20T09:05:55.062Z,7.80
2019-01-20T09:08:06.407Z,9.63
2019-01-20T09:10:21.538Z,7.62
2019-01-20T09:12:27.137Z,9.55
2019-01-20T09:14:32.549Z,8.40
2019-01-20T09:16:38.073Z,9.15
2019-01-20T09:18:43.465Z,8.13
2019-01-20T09:23:23.802Z,6.67
2019-01-20T09:25:28.914Z,7.13
2019-01-20T09:29:55.163Z,7.27
2019-01-20T09:32:06.109Z,7.70
2019-01-20T09:34:11.332Z,6.63
2019-01-20T09:36:16.589Z,8.37
2019-01-20T09:38:21.738Z,10.57
2019-01-20T09:40:27.153Z,9.45
2019-01-20T09:42:32.649Z,8.03
2019-01-20T09:44:37.958Z,12.43
2019-01-20T09:46:43.254Z,7.60
2019-01-20T09:48:48.758Z,7.20
2019-01-20T09:50:53.962Z,7.17
2019-01-20T09:52:59.146Z,7.07
2019-01-20T09:55:04.797Z,7.30
2019-01-20T09:57:10.013Z,8.10
2019-01-20T09:59:15.171Z,6.67
2019-01-20T10:01:26.906Z,7.43
2019-01-20T10:03:32.424Z,7.37
2019-01-20T10:05:37.787Z,7.43
2019-01-20T10:07:49.783Z,6.87
2019-01-20T10:09:55.085Z,5.20
2019-01-20T10:12:00.401Z,6.90
2019-01-20T10:14:05.726Z,7.33
2019-01-20T10:16:11.185Z,6.70
2019-01-20T10:18:16.428Z,7.23
2019-01-20T10:20:27.961Z,5.77
2019-01-20T10:22:33.332Z,6.20
2019-01-20T10:24:38.593Z,6.67
2019-01-20T10:26:43.718Z,7.07
2019-01-20T10:28:49.646Z,5.73
2019-01-20T10:30:54.781Z,5.60
2019-01-20T10:33:17.613Z,6.30
2019-01-20T10:35:27.202Z,6.70
2019-01-20T10:37:32.622Z,7.40
2019-01-20T10:39:37.845Z,6.70
2019-01-20T10:41:43.211Z,6.90
2019-01-20T10:43:48.517Z,6.60
2019-01-20T10:45:54.754Z,7.07
2019-01-20T10:47:59.957Z,6.70
2019-01-20T10:50:07.129Z,6.33
2019-01-20T10:52:12.344Z,6.73
2019-01-20T10:54:17.560Z,6.53
2019-01-20T10:56:22.665Z,6.90
2019-01-20T10:58:27.783Z,5.77
2019-01-20T11:00:36.477Z,6.83
2019-01-20T11:02:41.846Z,7.03
2019-01-20T11:04:49.219Z,7.60
2019-01-20T11:06:55.609Z,8.27
2019-01-20T11:09:01.005Z,7.00
2019-01-20T11:11:13.317Z,6.67
2019-01-20T11:13:18.590Z,7.00
2019-01-20T11:15:23.722Z,6.57
2019-01-20T11:17:29.405Z,6.30
2019-01-20T11:19:34.918Z,7.40
2019-01-20T11:21:40.062Z,6.50
2019-01-20T11:23:45.411Z,6.30
2019-01-20T11:25:50.625Z,6.33
2019-01-20T11:27:55.866Z,6.43
2019-01-20T11:30:01.037Z,6.43
2019-01-20T11:32:06.398Z,6.87
2019-01-20T11:34:11.618Z,7.70
2019-01-20T11:36:17.001Z,6.50
2019-01-20T11:38:22.382Z,6.53
2019-01-20T11:40:28.065Z,6.90
2019-01-20T11:42:33.657Z,6.62
2019-01-20T11:44:39.081Z,5.92
2019-01-20T11:46:45.322Z,6.53
2019-01-20T11:48:50.877Z,6.05
2019-01-20T11:50:56.305Z,5.72
2019-01-20T11:53:01.756Z,6.60
2019-01-20T11:55:08.921Z,6.80
2019-01-20T11:57:14.321Z,5.83
2019-01-20T11:59:19.825Z,6.80
2019-01-20T12:01:25.397Z,6.47
2019-01-20T12:03:31.838Z,6.72
2019-01-20T12:05:42.202Z,6.33
2019-01-20T12:07:54.295Z,6.80
2019-01-20T12:10:00.030Z,6.08
2019-01-20T12:12:05.564Z,6.45
2019-01-20T12:14:10.970Z,6.08
2019-01-20T12:16:17.392Z,6.27
2019-01-20T12:18:22.982Z,5.92
2019-01-20T12:20:34.397Z,6.15
2019-01-20T12:22:43.896Z,5.62
2019-01-20T12:24:49.786Z,6.20
2019-01-20T12:26:55.577Z,7.55
2019-01-20T12:29:00.961Z,6.03
2019-01-20T12:31:07.189Z,6.30
2019-01-20T12:33:13.109Z,8.28
2019-01-20T12:35:21.765Z,6.78
2019-01-20T12:37:27.193Z,6.72
2019-01-20T12:39:35.189Z,6.72
2019-01-20T12:41:40.611Z,6.75
2019-01-20T12:43:46.299Z,6.35
2019-01-20T12:45:51.710Z,6.75
2019-01-20T12:47:57.110Z,5.95
2019-01-20T12:50:02.553Z,6.12
2019-01-20T12:52:11.927Z,7.53
2019-01-20T12:54:17.329Z,5.65
2019-01-20T12:56:22.783Z,6.22
2019-01-20T12:58:30.222Z,7.30
2019-01-20T13:00:35.351Z,7.97
2019-01-20T13:02:40.478Z,6.67
2019-01-20T13:04:45.658Z,8.30
2019-01-20T13:06:50.965Z,8.33
2019-01-20T13:08:56.129Z,9.20
2019-01-20T13:11:04.004Z,9.50
2019-01-20T13:13:09.150Z,10.70
2019-01-20T13:15:16.773Z,10.17
2019-01-20T13:17:21.922Z,11.13
2019-01-20T13:19:27.097Z,11.43
2019-01-20T13:23:53.181Z,10.90
2019-01-20T13:25:58.351Z,10.33
2019-01-20T13:28:03.559Z,10.60
2019-01-20T13:30:12.766Z,11.97
2019-01-20T13:32:23.578Z,11.80
2019-01-20T13:34:29.267Z,10.70
2019-01-20T13:36:34.681Z,11.50
2019-01-20T13:38:40.141Z,11.28
2019-01-20T13:40:52.010Z,11.00
2019-01-20T13:42:57.419Z,11.38
2019-01-20T13:45:02.903Z,11.78
2019-01-20T13:47:08.501Z,10.28
2019-01-20T13:49:13.998Z,11.38
2019-01-20T13:51:19.487Z,10.50
2019-01-20T13:53:24.994Z,10.58
2019-01-20T13:55:30.434Z,10.25
2019-01-20T13:57:41.718Z,10.85
2019-01-20T13:59:50.198Z,10.20
2019-01-20T14:01:56.074Z,10.40
2019-01-20T14:04:05.609Z,10.10
2019-01-20T14:06:11.324Z,11.15
2019-01-20T14:08:16.866Z,11.85
2019-01-20T14:10:24.187Z,10.00
2019-01-20T14:12:30.426Z,10.40
2019-01-20T14:14:35.855Z,10.60
2019-01-20T14:16:42.412Z,11.85
2019-01-20T14:18:52.291Z,10.05
2019-01-20T14:20:57.710Z,10.85
2019-01-20T14:23:08.846Z,10.65
2019-01-20T14:25:16.393Z,11.22
2019-01-20T14:27:22.025Z,10.20
2019-01-20T14:29:27.502Z,10.90
2019-01-20T14:31:33.142Z,11.30
2019-01-20T14:33:38.658Z,11.18
2019-01-20T14:35:47.957Z,10.45
2019-01-20T14:37:53.734Z,10.78
2019-01-20T14:39:59.602Z,9.45
2019-01-20T14:42:05.166Z,11.45
2019-01-20T14:44:11.482Z,9.48
2019-01-20T14:46:16.908Z,10.63
2019-01-20T14:48:22.479Z,9.40
2019-01-20T14:50:28.201Z,11.73
2019-01-20T14:52:34.086Z,10.70
2019-01-20T14:54:39.702Z,10.60
2019-01-20T14:56:45.133Z,10.48
2019-01-20T14:58:50.955Z,9.40
2019-01-20T15:00:57.996Z,10.35
2019-01-20T15:03:03.901Z,8.53
2019-01-20T15:05:09.426Z,9.23
2019-01-20T15:07:22.129Z,9.98
2019-01-20T15:09:27.648Z,10.45
2019-01-20T15:11:33.118Z,10.30
2019-01-20T15:13:38.558Z,9.35
2019-01-20T15:15:45.060Z,10.43
2019-01-20T15:17:50.530Z,10.45
2019-01-20T15:19:56.039Z,10.38
2019-01-20T15:22:01.481Z,10.23
2019-01-20T15:24:07.165Z,10.30
2019-01-20T15:26:12.663Z,9.95
2019-01-20T15:28:19.853Z,8.80
2019-01-20T15:30:27.478Z,9.63
2019-01-20T15:32:40.717Z,10.03
2019-01-20T15:34:46.268Z,11.93
2019-01-20T15:36:51.861Z,14.10
2019-01-20T15:39:01.014Z,12.85
2019-01-20T15:41:06.431Z,12.33
2019-01-20T15:43:14.622Z,15.30
2019-01-20T15:45:20.889Z,15.90
2019-01-20T15:47:26.510Z,15.80
2019-01-20T15:49:31.927Z,16.97
2019-01-20T15:51:43.268Z,16.93
2019-01-20T15:53:48.782Z,16.48
2019-01-20T15:55:54.185Z,16.87
2019-01-20T15:58:00.440Z,16.05
2019-01-20T16:00:11.782Z,16.25
2019-01-20T16:02:17.482Z,18.00
2019-01-20T16:04:24.214Z,19.80
2019-01-20T16:06:29.965Z,17.80
2019-01-20T16:08:35.449Z,17.60
2019-01-20T16:10:42.054Z,18.00
2019-01-20T16:12:48.074Z,22.40
2019-01-20T16:14:53.817Z,21.30
2019-01-20T16:16:59.254Z,19.60
2019-01-20T16:19:04.987Z,21.30
2019-01-20T16:21:10.846Z,19.95
2019-01-20T16:23:22.443Z,18.45
2019-01-20T16:25:33.537Z,20.97
2019-01-20T16:27:43.402Z,20.02
2019-01-20T16:29:52.323Z,20.12
2019-01-20T16:31:58.741Z,19.12
2019-01-20T16:34:05.485Z,18.40
2019-01-20T16:36:14.779Z,20.30
2019-01-20T16:38:21.622Z,19.70
2019-01-20T16:40:30.333Z,21.17
2019-01-20T16:42:38.593Z,20.85
2019-01-20T16:44:46.217Z,23.38
2019-01-20T16:46:52.265Z,23.27
2019-01-20T16:49:00.261Z,22.73
2019-01-20T16:51:06.023Z,20.10
2019-01-20T16:53:12.578Z,22.10
2019-01-20T16:55:19.258Z,17.95
2019-01-20T16:57:24.950Z,20.48
2019-01-20T16:59:30.524Z,22.55
2019-01-20T17:01:36.964Z,22.90
2019-01-20T17:03:43.913Z,23.40
2019-01-20T17:05:51.518Z,31.57
2019-01-20T17:07:57.457Z,30.30
2019-01-20T17:10:02.994Z,20.77
2019-01-20T17:12:08.704Z,27.67
2019-01-20T17:14:14.422Z,26.37
2019-01-20T17:16:19.996Z,19.75
2019-01-20T17:18:25.455Z,18.32
2019-01-20T17:20:31.346Z,17.92
2019-01-20T17:22:36.982Z,16.40
2019-01-20T17:24:42.807Z,16.55
2019-01-20T17:26:50.446Z,15.85
2019-01-20T17:28:57.034Z,19.90
2019-01-20T17:31:02.498Z,18.15
2019-01-20T17:33:16.478Z,16.30
2019-01-20T17:35:24.833Z,14.53
2019-01-20T17:37:30.609Z,16.93
2019-01-20T17:39:36.164Z,16.65
2019-01-20T17:41:41.787Z,20.45
2019-01-20T17:43:47.295Z,16.55
2019-01-20T17:46:00.100Z,16.20
2019-01-20T17:48:06.463Z,15.75
2019-01-20T17:50:16.333Z,15.85
2019-01-20T17:52:22.704Z,19.27
2019-01-20T17:54:28.793Z,23.38
2019-01-20T17:56:34.306Z,21.15
2019-01-20T17:58:47.031Z,24.70
2019-01-20T18:01:02.990Z,22.02
2019-01-20T18:03:08.967Z,21.10
2019-01-20T18:05:15.557Z,23.15
2019-01-20T18:07:21.929Z,21.97
2019-01-20T18:09:27.599Z,24.10
2019-01-20T18:11:36.861Z,26.77
2019-01-20T18:13:42.682Z,25.02
2019-01-20T18:15:54.317Z,23.07
2019-01-20T18:17:55.998Z,21.35
2019-01-20T18:20:01.630Z,25.10
2019-01-20T18:22:07.298Z,26.42
2019-01-20T18:24:14.306Z,22.95
2019-01-20T18:26:19.842Z,23.77
2019-01-20T18:28:25.306Z,24.20
2019-01-20T18:30:31.768Z,23.40
2019-01-20T18:32:37.608Z,22.70
2019-01-20T18:34:43.189Z,22.10
2019-01-20T18:36:56.210Z,20.82
2019-01-20T18:39:04.117Z,19.40
2019-01-20T18:41:09.699Z,18.55
2019-01-20T18:43:17.020Z,21.95
2019-01-20T18:45:25.209Z,20.40
2019-01-20T18:47:32.583Z,22.37
2019-01-20T18:49:39.368Z,23.70
2019-01-20T18:51:45.211Z,25.82
2019-01-20T18:53:50.717Z,27.05
2019-01-20T18:55:56.672Z,22.98
2019-01-20T18:58:02.258Z,21.73
2019-01-20T19:00:12.034Z,22.32
2019-01-20T19:02:21.075Z,23.38
2019-01-20T19:04:27.394Z,30.50
2019-01-20T19:06:34.191Z,24.75
2019-01-20T19:08:39.862Z,23.83
2019-01-20T19:10:45.294Z,25.20
2019-01-20T19:12:50.899Z,22.87
2019-01-20T19:14:57.150Z,24.07
2019-01-20T19:17:04.818Z,23.60
2019-01-20T19:19:13.199Z,22.95
2019-01-20T19:21:18.683Z,21.27
2019-01-20T19:23:24.298Z,19.32
2019-01-20T19:25:29.754Z,20.23
2019-01-20T19:27:36.446Z,21.37
2019-01-20T19:29:42.544Z,20.40
2019-01-20T19:31:48.525Z,19.10
2019-01-20T19:33:54.076Z,18.27
2019-01-20T19:35:59.794Z,16.15
2019-01-20T19:38:05.649Z,18.25
2019-01-20T19:40:12.015Z,16.80
2019-01-20T19:42:17.538Z,17.85
2019-01-20T19:44:26.074Z,16.10
2019-01-20T19:46:32.568Z,17.17
2019-01-20T19:48:38.840Z,17.25
2019-01-20T19:50:44.774Z,16.62
2019-01-20T19:52:58.194Z,15.80
2019-01-20T19:55:05.610Z,16.70
2019-01-20T19:57:12.058Z,16.20
2019-01-20T19:59:18.521Z,15.85
2019-01-20T20:01:30.707Z,16.00
2019-01-20T20:03:32.646Z,16.82
2019-01-20T20:05:50.717Z,17.67
2019-01-20T20:07:57.282Z,18.30
2019-01-20T20:10:02.789Z,20.95
2019-01-20T20:12:14.417Z,21.73
2019-01-20T20:14:19.903Z,18.30
2019-01-20T20:16:26.087Z,17.23
2019-01-20T20:18:34.191Z,17.70
2019-01-20T20:20:39.804Z,17.02
2019-01-20T20:24:57.363Z,18.40
2019-01-20T20:27:06.674Z,18.98
2019-01-20T20:29:12.748Z,15.20
2019-01-20T20:31:18.985Z,16.60
2019-01-20T20:33:25.641Z,16.87
2019-01-20T20:35:32.910Z,17.45
2019-01-20T20:37:38.727Z,17.12
2019-01-20T20:39:45.006Z,18.80
2019-01-20T20:41:50.557Z,18.75
2019-01-20T20:43:56.376Z,17.82
2019-01-20T20:46:01.965Z,17.95
2019-01-20T20:48:07.754Z,20.75
2019-01-20T20:50:14.561Z,19.17
2019-01-20T20:52:22.957Z,19.05
2019-01-20T20:54:28.469Z,20.05
2019-01-20T20:56:34.262Z,19.77
2019-01-20T20:58:41.978Z,20.15
2019-01-20T21:00:52.941Z,24.57
2019-01-20T21:02:58.658Z,23.73
2019-01-20T21:05:04.205Z,25.45
2019-01-20T21:07:09.877Z,24.67
2019-01-20T21:09:16.521Z,24.27
2019-01-20T21:11:22.317Z,22.82
2019-01-20T21:13:28.289Z,24.43
2019-01-20T21:15:34.265Z,23.00
2019-01-20T21:17:47.884Z,21.87
2019-01-20T21:19:48.978Z,27.75
2019-01-20T21:21:54.448Z,32.35
2019-01-20T21:26:23.188Z,34.53
2019-01-20T21:28:29.536Z,34.30
2019-01-20T21:30:35.634Z,35.43
2019-01-20T21:32:41.529Z,29.00
2019-01-20T21:34:46.978Z,31.15
2019-01-20T21:36:55.605Z,30.35
2019-01-20T21:39:02.714Z,31.48
2019-01-20T21:41:08.381Z,33.13
2019-01-20T21:43:14.885Z,39.18
2019-01-20T21:45:20.971Z,34.35
2019-01-20T21:47:28.931Z,33.40
2019-01-20T21:49:36.713Z,28.30
2019-01-20T21:51:42.726Z,29.40
2019-01-20T21:53:52.658Z,27.48
2019-01-20T21:56:03.105Z,29.87
2019-01-20T21:58:09.273Z,25.75
2019-01-20T22:00:17.467Z,25.97
2019-01-20T22:02:22.937Z,24.50
2019-01-20T22:04:31.914Z,22.87
2019-01-20T22:06:38.245Z,25.25
2019-01-20T22:08:43.959Z,24.45
2019-01-20T22:10:49.448Z,25.60
2019-01-20T22:12:55.859Z,27.40
2019-01-20T22:15:01.702Z,25.43
2019-01-20T22:17:10.990Z,26.85
2019-01-20T22:19:16.950Z,24.25
2019-01-20T22:21:26.484Z,23.12
2019-01-20T22:23:32.135Z,22.80
2019-01-20T22:25:38.716Z,23.75
2019-01-20T22:27:44.245Z,23.55
2019-01-20T22:29:50.030Z,21.62
2019-01-20T22:31:55.696Z,22.95
2019-01-20T22:34:01.395Z,22.58
2019-01-20T22:36:07.466Z,23.90
2019-01-20T22:38:12.892Z,22.85
2019-01-20T22:40:18.965Z,22.75
2019-01-20T22:42:24.872Z,20.27
2019-01-20T22:44:31.006Z,21.02
2019-01-20T22:46:36.476Z,20.60
2019-01-20T22:48:43.389Z,21.93
2019-01-20T22:50:52.662Z,22.77
2019-01-20T22:53:01.426Z,22.75
2019-01-20T22:55:08.834Z,23.52
2019-01-20T22:57:17.793Z,24.25
2019-01-20T22:59:23.978Z,21.68
2019-01-20T23:01:29.938Z,25.52
2019-01-20T23:03:39.304Z,22.05
2019-01-20T23:05:45.296Z,19.70
2019-01-20T23:07:52.799Z,22.15
2019-01-20T23:09:58.643Z,22.90
2019-01-20T23:12:04.514Z,22.55
2019-01-20T23:14:12.482Z,22.15
2019-01-20T23:16:18.130Z,23.02
2019-01-20T23:18:23.814Z,21.40
2019-01-20T23:20:29.826Z,22.20
2019-01-20T23:22:43.481Z,22.25
2019-01-20T23:24:49.017Z,22.67
2019-01-20T23:26:55.224Z,24.40
2019-01-20T23:29:00.655Z,21.52
2019-01-20T23:31:06.430Z,22.35
2019-01-20T23:33:14.322Z,20.68
2019-01-20T23:35:21.403Z,21.82
2019-01-20T23:37:29.817Z,22.00
2019-01-20T23:39:37.126Z,23.05
2019-01-20T23:41:45.321Z,22.00
2019-01-20T23:43:51.193Z,22.90
2019-01-20T23:45:57.055Z,24.20
2019-01-20T23:48:02.554Z,22.62
2019-01-20T23:50:09.765Z,23.40
2019-01-20T23:52:15.552Z,22.98
2019-01-20T23:54:24.687Z,21.62
2019-01-20T23:56:30.649Z,22.02
2019-01-20T23:58:36.233Z,23.20
